Time;durP1;ratioP1;P1;durP2;ratioP2;P2;SDS_P1;SDS_P2;PMS_P1;PMS_P2;Temp;Humidity;BMP_temperature;BMP_pressure;BME280_temperature;BME280_humidity;BME280_pressure;Samples;Min_cycle;Max_cycle;Signal;HPM_P1;HPM_P2
2024/03/19 00:00:35;;;;;;;11.37;5.57;;;9.10;99.90;;;;;;5034552;28;20125;-50
2024/03/19 00:03:00;;;;;;;12.70;4.97;;;9.10;99.90;;;;;;5034942;28;20033;-49
2024/03/19 00:05:26;;;;;;;10.90;5.07;;;9.10;99.90;;;;;;5034271;28;20496;-51
2024/03/19 00:07:52;;;;;;;12.97;4.93;;;9.10;99.90;;;;;;5034530;28;20030;-50
2024/03/19 00:10:17;;;;;;;14.10;6.10;;;9.20;99.90;;;;;;5034301;28;20037;-49
2024/03/19 00:12:43;;;;;;;18.33;7.10;;;9.20;99.90;;;;;;5034397;28;20048;-48
2024/03/19 00:15:09;;;;;;;15.30;6.80;;;9.30;99.90;;;;;;5034193;28;20072;-51
2024/03/19 00:17:36;;;;;;;13.60;5.47;;;9.30;99.90;;;;;;5034266;28;20038;-51
2024/03/19 00:20:05;;;;;;;13.37;6.03;;;9.30;99.90;;;;;;5034317;28;20041;-48
2024/03/19 00:22:34;;;;;;;14.63;5.45;;;9.30;99.90;;;;;;5034521;28;20037;-48
2024/03/19 00:24:59;;;;;;;16.83;5.30;;;9.30;99.90;;;;;;5034168;28;20040;-46
2024/03/19 00:27:25;;;;;;;14.63;6.00;;;9.30;99.90;;;;;;5034326;28;20025;-49
2024/03/19 00:29:52;;;;;;;13.10;5.77;;;9.40;99.90;;;;;;5034039;28;20025;-49
2024/03/19 00:32:18;;;;;;;14.30;6.27;;;9.40;99.90;;;;;;5033130;28;20320;-47
2024/03/19 00:34:43;;;;;;;17.93;6.37;;;9.40;99.90;;;;;;5033971;28;20034;-47
2024/03/19 00:37:09;;;;;;;14.20;6.23;;;9.40;99.90;;;;;;5033964;28;20026;-52
2024/03/19 00:39:34;;;;;;;12.80;6.00;;;9.40;99.90;;;;;;5033859;28;20060;-49
2024/03/19 00:42:06;;;;;;;17.07;6.50;;;9.50;99.90;;;;;;5033957;28;20413;-47
2024/03/19 00:44:32;;;;;;;14.60;6.37;;;9.50;99.90;;;;;;5032472;28;20037;-48
2024/03/19 00:46:58;;;;;;;16.33;5.97;;;9.50;99.90;;;;;;5033770;28;20037;-51
2024/03/19 00:49:24;;;;;;;20.10;7.23;;;9.50;99.90;;;;;;5033573;28;20501;-49
2024/03/19 00:51:50;;;;;;;15.30;5.97;;;9.60;99.90;;;;;;5033592;28;20032;-48
2024/03/19 00:54:16;;;;;;;17.30;6.17;;;9.60;99.90;;;;;;5033472;28;20033;-48
2024/03/19 00:56:41;;;;;;;17.43;6.90;;;9.60;99.90;;;;;;5033399;28;20040;-50
2024/03/19 00:59:07;;;;;;;16.37;7.37;;;9.60;99.90;;;;;;5033506;28;20040;-50
2024/03/19 01:01:33;;;;;;;19.17;6.73;;;9.60;99.90;;;;;;5033470;28;20030;-52
2024/03/19 01:03:59;;;;;;;17.10;7.33;;;9.50;99.90;;;;;;5033329;28;20036;-47
2024/03/19 01:06:25;;;;;;;15.27;6.43;;;9.60;99.90;;;;;;5033452;28;20389;-50
2024/03/19 01:08:51;;;;;;;18.17;7.67;;;9.60;99.90;;;;;;5032787;28;20033;-50
2024/03/19 01:11:17;;;;;;;17.60;7.33;;;9.60;99.90;;;;;;5033293;28;20381;-51
2024/03/19 01:13:45;;;;;;;19.13;7.40;;;9.60;99.90;;;;;;5033489;28;20031;-51
2024/03/19 01:16:11;;;;;;;16.23;7.50;;;9.70;99.90;;;;;;5033234;28;20061;-51
2024/03/19 01:18:37;;;;;;;17.67;6.83;;;9.70;99.90;;;;;;5033129;28;20397;-50
2024/03/19 01:21:02;;;;;;;17.23;6.57;;;9.70;99.90;;;;;;5033036;28;20037;-50
2024/03/19 01:23:28;;;;;;;20.67;7.60;;;9.80;99.90;;;;;;5032937;28;20385;-47
2024/03/19 01:25:54;;;;;;;17.87;7.43;;;9.80;99.90;;;;;;5032941;28;20514;-51
2024/03/19 01:28:21;;;;;;;17.47;7.30;;;9.80;99.90;;;;;;5032869;28;20127;-47
2024/03/19 01:30:47;;;;;;;19.27;7.10;;;9.90;99.90;;;;;;5032891;28;20025;-47
2024/03/19 01:33:13;;;;;;;17.47;6.93;;;10.00;99.90;;;;;;5032758;28;20030;-49
2024/03/19 01:35:39;;;;;;;19.10;7.40;;;10.00;99.90;;;;;;5032878;28;20026;-46
2024/03/19 01:38:04;;;;;;;19.20;7.33;;;10.00;99.90;;;;;;5032837;28;20036;-48
2024/03/19 01:40:30;;;;;;;16.50;7.37;;;9.90;99.90;;;;;;5032655;28;20057;-46
2024/03/19 01:42:56;;;;;;;17.20;6.63;;;10.10;99.90;;;;;;5032682;28;20468;-48
2024/03/19 01:45:22;;;;;;;16.87;6.83;;;10.10;99.90;;;;;;5032501;28;20034;-51
2024/03/19 01:47:49;;;;;;;13.47;6.03;;;10.00;99.90;;;;;;5032697;28;20116;-51
2024/03/19 01:50:15;;;;;;;17.97;6.90;;;10.00;99.90;;;;;;5032768;28;20437;-49
2024/03/19 01:52:47;;;;;;;15.43;6.87;;;9.90;99.90;;;;;;5032565;28;20112;-47
2024/03/19 01:55:14;;;;;;;13.63;6.30;;;9.90;99.90;;;;;;5032172;28;20029;-47
2024/03/19 01:57:43;;;;;;;14.90;6.43;;;9.90;99.90;;;;;;5032488;28;20502;-50
2024/03/19 02:00:10;;;;;;;14.50;5.73;;;10.00;99.90;;;;;;5032179;28;20536;-48
2024/03/19 02:02:39;;;;;;;20.25;6.65;;;9.90;99.90;;;;;;5032384;28;20039;-48
2024/03/19 02:05:06;;;;;;;17.40;6.33;;;9.90;99.90;;;;;;5032063;28;20061;-48
2024/03/19 02:07:32;;;;;;;17.23;7.13;;;10.00;99.90;;;;;;5032305;28;20030;-47
2024/03/19 02:09:58;;;;;;;14.83;6.87;;;10.00;99.90;;;;;;5032008;28;20457;-46
2024/03/19 02:12:25;;;;;;;14.77;6.63;;;9.90;99.90;;;;;;5032287;28;20512;-50
2024/03/19 02:14:51;;;;;;;14.87;6.50;;;9.90;99.90;;;;;;5031963;28;20493;-50
2024/03/19 02:17:17;;;;;;;16.50;6.47;;;9.80;99.90;;;;;;5032045;28;20029;-47
2024/03/19 02:19:43;;;;;;;11.37;6.00;;;9.80;99.90;;;;;;5031287;28;20533;-47
2024/03/19 02:22:10;;;;;;;19.60;6.63;;;9.80;99.90;;;;;;5032017;28;20029;-48
2024/03/19 02:24:37;;;;;;;17.67;7.03;;;9.70;99.90;;;;;;5031921;28;20029;-47
2024/03/19 02:27:03;;;;;;;13.27;5.77;;;9.70;99.90;;;;;;5031963;28;20030;-50
2024/03/19 02:29:28;;;;;;;18.60;7.40;;;9.60;99.90;;;;;;5031760;28;20401;-50
2024/03/19 02:31:54;;;;;;;18.83;6.20;;;9.60;99.90;;;;;;5031938;28;20026;-49
2024/03/19 02:34:20;;;;;;;13.60;5.93;;;9.50;99.90;;;;;;5031840;28;20030;-49
2024/03/19 02:36:46;;;;;;;16.70;6.00;;;9.60;99.90;;;;;;5031654;28;20116;-50
2024/03/19 02:39:12;;;;;;;15.13;6.17;;;9.60;99.90;;;;;;5031802;28;20116;-47
2024/03/19 02:41:40;;;;;;;15.63;5.40;;;9.50;99.90;;;;;;5031780;28;20124;-47
2024/03/19 02:44:06;;;;;;;15.43;6.18;;;9.50;99.90;;;;;;5031686;28;20045;-49
2024/03/19 02:46:32;;;;;;;15.37;5.93;;;9.40;99.90;;;;;;5031691;28;20044;-49
2024/03/19 02:48:58;;;;;;;13.37;6.00;;;9.40;99.90;;;;;;5031663;28;20037;-48
2024/03/19 02:51:24;;;;;;;14.20;6.17;;;9.40;99.90;;;;;;5031600;28;20029;-49
2024/03/19 02:53:50;;;;;;;18.50;6.63;;;9.40;99.90;;;;;;5031542;28;20511;-51
2024/03/19 02:56:16;;;;;;;15.73;6.53;;;9.50;99.90;;;;;;5031720;28;20104;-48
2024/03/19 02:58:42;;;;;;;15.50;6.57;;;9.50;99.90;;;;;;5031687;28;20022;-51
2024/03/19 03:01:08;;;;;;;14.67;6.40;;;9.40;99.90;;;;;;5031534;28;20030;-47
2024/03/19 03:03:36;;;;;;;14.47;5.47;;;9.40;99.90;;;;;;5031622;28;20092;-49
2024/03/19 03:06:02;;;;;;;15.07;6.05;;;9.50;99.90;;;;;;5031501;28;20045;-48
2024/03/19 03:08:28;;;;;;;15.27;6.20;;;9.50;99.90;;;;;;5031495;28;20113;-50
2024/03/19 03:10:54;;;;;;;12.77;5.60;;;9.50;99.90;;;;;;5031486;28;20490;-51
2024/03/19 03:13:19;;;;;;;16.80;6.03;;;9.60;99.90;;;;;;5031420;28;20351;-48
2024/03/19 03:15:45;;;;;;;15.60;5.77;;;9.60;99.90;;;;;;5031435;28;20028;-47
2024/03/19 03:18:10;;;;;;;15.30;6.23;;;9.60;99.90;;;;;;5031443;28;20534;-47
2024/03/19 03:20:37;;;;;;;15.23;5.50;;;9.60;99.90;;;;;;5031343;28;20393;-49
2024/03/19 03:23:03;;;;;;;15.07;6.50;;;9.60;99.90;;;;;;5031466;28;20025;-50
2024/03/19 03:25:29;;;;;;;14.63;6.03;;;9.60;99.90;;;;;;5031490;28;20131;-51
2024/03/19 03:27:56;;;;;;;11.53;5.80;;;9.50;99.90;;;;;;5031423;28;20029;-48
2024/03/19 03:30:22;;;;;;;14.53;5.57;;;9.50;99.90;;;;;;5031896;28;20025;-49
2024/03/19 03:32:48;;;;;;;13.10;5.70;;;9.50;99.90;;;;;;5035211;28;20026;-48
2024/03/19 03:35:14;;;;;;;14.57;5.47;;;9.50;99.90;;;;;;5034858;28;20031;-47
2024/03/19 03:37:41;;;;;;;13.73;5.37;;;9.50;99.90;;;;;;5035099;28;20433;-49
2024/03/19 03:40:29;;;;;;;15.00;5.80;;;9.50;99.90;;;;;;5034937;28;20036;-49
2024/03/19 03:42:52;;;;;;;12.30;5.23;;;9.50;99.90;;;;;;5034701;28;20033;-50
2024/03/19 03:45:20;;;;;;;15.80;5.87;;;9.40;99.90;;;;;;5034737;28;20505;-47
2024/03/19 03:47:46;;;;;;;16.03;6.17;;;9.40;99.90;;;;;;5033728;28;20088;-48
2024/03/19 03:50:13;;;;;;;11.43;5.97;;;9.40;99.90;;;;;;5034619;28;20041;-48
2024/03/19 03:52:39;;;;;;;16.40;6.23;;;9.30;99.90;;;;;;5034809;28;20085;-49
2024/03/19 03:55:06;;;;;;;13.07;5.50;;;9.40;99.90;;;;;;5034481;28;20045;-49
2024/03/19 03:57:35;;;;;;;11.93;5.70;;;9.30;99.90;;;;;;5034744;28;20068;-50
2024/03/19 04:00:08;;;;;;;12.27;5.22;;;9.40;99.90;;;;;;5034495;28;20470;-47
2024/03/19 04:02:42;;;;;;;14.30;5.67;;;9.30;99.90;;;;;;5034886;28;20032;-47
2024/03/19 04:05:09;;;;;;;12.33;5.70;;;9.40;99.90;;;;;;5034377;28;20107;-46
2024/03/19 04:07:41;;;;;;;13.20;5.60;;;9.40;99.90;;;;;;5034559;28;20033;-48
2024/03/19 04:10:08;;;;;;;14.40;5.47;;;9.30;99.90;;;;;;5034322;28;20112;-48
2024/03/19 04:12:34;;;;;;;14.97;5.40;;;9.20;99.90;;;;;;5034407;28;20082;-49
2024/03/19 04:15:00;;;;;;;13.43;5.73;;;9.20;99.90;;;;;;5034359;28;20458;-48
2024/03/19 04:17:27;;;;;;;18.93;6.03;;;9.10;99.90;;;;;;5034582;28;20028;-48
2024/03/19 04:19:53;;;;;;;16.87;6.10;;;9.10;99.90;;;;;;5034260;28;20120;-48
2024/03/19 04:22:18;;;;;;;13.87;5.30;;;9.10;99.90;;;;;;5034459;28;20113;-48
2024/03/19 04:24:44;;;;;;;13.03;5.63;;;9.00;99.90;;;;;;5034124;28;20397;-49
2024/03/19 04:27:09;;;;;;;13.10;5.10;;;9.00;99.90;;;;;;5034039;28;20036;-48
2024/03/19 04:29:35;;;;;;;12.57;5.53;;;8.90;99.90;;;;;;5032712;28;20059;-49
2024/03/19 04:32:01;;;;;;;10.87;5.03;;;9.00;99.90;;;;;;5034322;28;20037;-50
2024/03/19 04:34:27;;;;;;;13.73;5.70;;;8.90;99.90;;;;;;5033901;28;20040;-47
2024/03/19 04:36:53;;;;;;;13.97;5.43;;;8.90;99.90;;;;;;5033894;28;20109;-47
2024/03/19 04:39:18;;;;;;;14.30;5.40;;;8.90;99.90;;;;;;5033935;28;20542;-48
2024/03/19 04:41:45;;;;;;;12.53;5.20;;;8.90;99.90;;;;;;5033333;28;20052;-48
2024/03/19 04:44:10;;;;;;;14.77;6.00;;;8.90;99.90;;;;;;5033385;28;20334;-47
2024/03/19 04:46:36;;;;;;;18.13;5.80;;;8.90;99.90;;;;;;5034035;28;20025;-47
2024/03/19 04:49:01;;;;;;;16.43;5.47;;;8.90;99.90;;;;;;5032637;28;20077;-47
2024/03/19 04:51:27;;;;;;;12.23;5.50;;;8.90;99.90;;;;;;5033743;28;20025;-47
2024/03/19 04:53:53;;;;;;;12.93;5.00;;;8.90;99.90;;;;;;5033484;28;20497;-47
2024/03/19 04:56:22;;;;;;;13.83;5.30;;;8.80;99.90;;;;;;5033888;28;20428;-47
2024/03/19 04:58:48;;;;;;;15.35;5.93;;;8.80;99.90;;;;;;5034045;28;20034;-47
2024/03/19 05:01:16;;;;;;;15.80;5.90;;;8.80;99.90;;;;;;5034200;28;20056;-47
2024/03/19 05:03:42;;;;;;;13.33;5.00;;;8.80;99.90;;;;;;5049560;28;20547;-47
2024/03/19 05:06:08;;;;;;;13.40;5.87;;;8.90;99.90;;;;;;5034074;28;20448;-47
2024/03/19 05:08:39;;;;;;;15.87;5.70;;;8.90;99.90;;;;;;5034078;28;20411;-47
2024/03/19 05:11:05;;;;;;;13.20;6.03;;;8.80;99.90;;;;;;5034655;28;20458;-47
2024/03/19 05:13:31;;;;;;;13.90;4.50;;;8.80;99.90;;;;;;5033947;28;20021;-46
2024/03/19 05:15:57;;;;;;;13.80;5.77;;;8.80;99.90;;;;;;5035495;28;20037;-48
2024/03/19 05:18:23;;;;;;;13.27;5.00;;;8.80;99.90;;;;;;5035291;28;20025;-48
2024/03/19 05:20:49;;;;;;;15.80;5.87;;;8.90;99.90;;;;;;5035302;28;20029;-47
2024/03/19 05:23:15;;;;;;;12.17;5.07;;;8.90;99.90;;;;;;5033912;28;20052;-47
2024/03/19 05:25:43;;;;;;;11.60;5.27;;;8.90;99.90;;;;;;5034677;28;20022;-48
2024/03/19 05:28:10;;;;;;;13.35;5.50;;;8.90;99.90;;;;;;5034419;28;20033;-48
2024/03/19 05:30:36;;;;;;;10.93;5.23;;;8.90;99.90;;;;;;5032826;28;20034;-47
2024/03/19 05:33:02;;;;;;;10.00;4.93;;;8.90;99.90;;;;;;5033002;28;20080;-48
2024/03/19 05:35:27;;;;;;;11.93;4.53;;;8.90;99.90;;;;;;5032713;28;20486;-47
2024/03/19 05:37:53;;;;;;;17.10;6.90;;;8.90;99.90;;;;;;5032838;28;20584;-47
2024/03/19 05:40:19;;;;;;;12.53;5.70;;;8.90;99.90;;;;;;5032651;28;20029;-48
2024/03/19 05:42:45;;;;;;;17.87;5.17;;;8.90;99.90;;;;;;5032689;28;20034;-48
2024/03/19 05:45:11;;;;;;;18.13;5.87;;;8.90;99.90;;;;;;5032490;28;20108;-47
2024/03/19 05:47:37;;;;;;;15.30;6.20;;;8.90;99.90;;;;;;5032653;28;20033;-48
2024/03/19 05:50:04;;;;;;;13.93;6.13;;;9.00;99.90;;;;;;5032438;28;20033;-48
2024/03/19 05:52:30;;;;;;;13.63;5.03;;;9.00;99.90;;;;;;5032522;28;20030;-47
2024/03/19 05:54:56;;;;;;;12.17;5.83;;;9.10;99.90;;;;;;5032202;28;20041;-47
2024/03/19 05:57:22;;;;;;;13.53;5.40;;;9.10;99.90;;;;;;5031189;28;20032;-47
2024/03/19 05:59:47;;;;;;;12.10;4.87;;;9.10;99.90;;;;;;5032489;28;20040;-48
2024/03/19 06:02:13;;;;;;;14.43;5.50;;;9.00;99.90;;;;;;5032397;28;20037;-50
2024/03/19 06:04:39;;;;;;;15.10;6.80;;;9.00;99.90;;;;;;5032106;28;20040;-50
2024/03/19 06:07:05;;;;;;;14.03;5.47;;;9.00;99.90;;;;;;5032646;28;20033;-52
2024/03/19 06:09:30;;;;;;;12.97;5.50;;;9.00;99.90;;;;;;5032244;28;20409;-52
2024/03/19 06:11:57;;;;;;;14.03;6.43;;;9.00;99.90;;;;;;5032426;28;20022;-48
2024/03/19 06:14:23;;;;;;;13.60;5.20;;;8.90;99.90;;;;;;5032207;28;20504;-48
2024/03/19 06:16:49;;;;;;;15.83;5.40;;;9.10;99.90;;;;;;5032329;28;20022;-49
2024/03/19 06:19:16;;;;;;;10.87;5.20;;;9.10;99.90;;;;;;5032069;28;20061;-50
2024/03/19 06:21:43;;;;;;;13.47;5.57;;;9.10;99.90;;;;;;5032060;28;20030;-49
2024/03/19 06:24:09;;;;;;;12.87;5.70;;;9.10;99.90;;;;;;5031973;28;20112;-51
2024/03/19 06:26:35;;;;;;;12.70;5.60;;;9.20;99.90;;;;;;5032113;28;20029;-52
2024/03/19 06:29:03;;;;;;;10.90;5.50;;;9.20;99.90;;;;;;5032035;28;20397;-48
2024/03/19 06:31:32;;;;;;;14.60;5.73;;;9.30;99.90;;;;;;5032055;28;20037;-48
2024/03/19 06:33:58;;;;;;;12.77;5.63;;;9.20;99.90;;;;;;5031842;28;20106;-47
2024/03/19 06:36:24;;;;;;;16.13;6.10;;;9.30;99.90;;;;;;5031763;28;20037;-47
2024/03/19 06:38:50;;;;;;;11.13;5.73;;;9.40;99.90;;;;;;5031884;28;20034;-49
2024/03/19 06:41:15;;;;;;;13.43;6.10;;;9.50;99.90;;;;;;5031899;28;20036;-48
2024/03/19 06:43:41;;;;;;;14.23;6.73;;;9.70;99.90;;;;;;5031738;28;20025;-50
2024/03/19 06:46:07;;;;;;;11.27;5.70;;;9.80;99.90;;;;;;5031819;28;20073;-51
2024/03/19 06:48:34;;;;;;;15.37;5.77;;;9.90;99.90;;;;;;5047151;28;20037;-51
2024/03/19 06:51:00;;;;;;;12.83;4.90;;;9.90;99.90;;;;;;5031639;28;20040;-48
2024/03/19 06:53:27;;;;;;;14.73;5.17;;;9.90;99.90;;;;;;5031662;28;20033;-48
2024/03/19 06:55:54;;;;;;;12.73;5.10;;;10.10;99.90;;;;;;5031683;28;20037;-48
2024/03/19 06:58:19;;;;;;;12.90;5.63;;;10.20;99.90;;;;;;5031681;28;20033;-52
2024/03/19 07:00:47;;;;;;;12.73;5.30;;;10.30;99.90;;;;;;5031699;28;20022;-50
2024/03/19 07:03:13;;;;;;;16.13;6.00;;;10.30;99.90;;;;;;5031703;28;20030;-48
2024/03/19 07:05:39;;;;;;;15.63;5.93;;;10.30;99.90;;;;;;5032774;28;20053;-50
2024/03/19 07:08:05;;;;;;;10.30;4.93;;;10.40;99.90;;;;;;5035707;28;20064;-49
2024/03/19 07:10:30;;;;;;;13.90;5.73;;;10.40;99.90;;;;;;5035604;28;20091;-51
2024/03/19 07:12:56;;;;;;;12.83;5.67;;;10.40;99.90;;;;;;5035759;28;20021;-47
2024/03/19 07:15:22;;;;;;;12.00;5.50;;;10.40;99.90;;;;;;5035373;28;20112;-49
2024/03/19 07:17:51;;;;;;;14.93;6.23;;;10.40;99.90;;;;;;5035502;28;20040;-47
2024/03/19 07:20:20;;;;;;;15.77;6.27;;;10.40;99.90;;;;;;5035343;28;20040;-48
2024/03/19 07:22:47;;;;;;;19.05;6.47;;;10.40;99.90;;;;;;5035538;28;20371;-49
2024/03/19 07:25:13;;;;;;;17.47;5.90;;;10.40;99.90;;;;;;5035194;28;20087;-49
2024/03/19 07:27:41;;;;;;;13.43;5.70;;;10.50;99.90;;;;;;5035317;28;20075;-50
2024/03/19 07:30:11;;;;;;;11.70;5.70;;;10.50;99.90;;;;;;5035184;28;20080;-50
2024/03/19 07:32:38;;;;;;;15.47;6.00;;;10.60;99.90;;;;;;5034143;28;20320;-53
2024/03/19 07:35:04;;;;;;;13.30;5.97;;;10.60;99.90;;;;;;5035062;28;20374;-49
2024/03/19 07:37:31;;;;;;;15.27;5.73;;;10.70;99.90;;;;;;5035261;28;20513;-49
2024/03/19 07:39:57;;;;;;;12.50;5.20;;;10.70;99.90;;;;;;5050291;28;20551;-50
2024/03/19 07:42:23;;;;;;;13.87;5.80;;;10.70;99.90;;;;;;5035027;28;20490;-50
2024/03/19 07:44:51;;;;;;;16.63;5.97;;;10.70;99.90;;;;;;5034930;28;20174;-53
2024/03/19 07:47:18;;;;;;;16.90;5.87;;;10.80;99.90;;;;;;5034974;28;20171;-52
2024/03/19 07:49:46;;;;;;;11.00;5.30;;;10.80;99.90;;;;;;5034955;28;20128;-51
2024/03/19 07:52:14;;;;;;;14.68;5.28;;;10.90;99.90;;;;;;5034935;28;20021;-48
2024/03/19 07:54:39;;;;;;;13.63;5.60;;;10.90;99.90;;;;;;5034709;28;20029;-52
2024/03/19 07:57:05;;;;;;;13.07;5.33;;;10.90;99.90;;;;;;5034808;28;20025;-53
2024/03/19 07:59:31;;;;;;;13.10;5.50;;;10.90;99.90;;;;;;5035182;28;20386;-53
2024/03/19 08:01:56;;;;;;;12.87;5.23;;;10.90;99.90;;;;;;5034647;28;20030;-50
2024/03/19 08:04:22;;;;;;;10.60;5.37;;;11.00;99.90;;;;;;5034733;28;20183;-47
2024/03/19 08:06:48;;;;;;;13.60;5.43;;;11.00;99.90;;;;;;5034583;28;20041;-46
2024/03/19 08:09:14;;;;;;;13.20;5.60;;;11.10;99.90;;;;;;5034523;28;20037;-50
2024/03/19 08:11:40;;;;;;;9.43;5.03;;;11.00;99.90;;;;;;5034651;28;20389;-52
2024/03/19 08:14:05;;;;;;;11.03;5.30;;;11.10;99.90;;;;;;5034466;28;20233;-47
2024/03/19 08:16:32;;;;;;;11.93;5.10;;;11.20;99.90;;;;;;5033585;28;20033;-48
2024/03/19 08:19:00;;;;;;;9.93;5.00;;;11.30;99.90;;;;;;5033812;28;20478;-47
2024/03/19 08:21:26;;;;;;;11.55;5.32;;;11.40;99.90;;;;;;5034293;28;20401;-50
2024/03/19 08:23:52;;;;;;;10.97;5.27;;;11.40;99.90;;;;;;5034198;28;20045;-50
2024/03/19 08:26:18;;;;;;;14.57;5.37;;;11.50;99.90;;;;;;5034192;28;20033;-49
2024/03/19 08:28:44;;;;;;;12.00;5.37;;;11.50;99.90;;;;;;5034270;28;20111;-50
2024/03/19 08:31:10;;;;;;;13.13;4.97;;;11.60;99.90;;;;;;5034018;28;20129;-47
2024/03/19 08:33:36;;;;;;;13.10;4.80;;;11.60;99.90;;;;;;5034198;28;20030;-49
2024/03/19 08:36:04;;;;;;;12.63;4.05;;;11.60;99.90;;;;;;5034338;28;20032;-52
2024/03/19 08:38:31;;;;;;;13.30;4.72;;;11.60;99.90;;;;;;5034082;28;20044;-52
2024/03/19 08:40:56;;;;;;;11.00;4.65;;;11.60;99.90;;;;;;5034056;28;20037;-50
2024/03/19 08:43:22;;;;;;;14.13;5.05;;;11.70;99.90;;;;;;5033974;28;20030;-51
2024/03/19 08:45:47;;;;;;;10.57;4.70;;;11.90;99.90;;;;;;5033972;28;20105;-51
2024/03/19 08:48:13;;;;;;;12.27;5.05;;;12.00;99.90;;;;;;5033867;28;20441;-51
2024/03/19 08:50:38;;;;;;;14.70;5.13;;;12.10;99.90;;;;;;5033679;28;20038;-50
2024/03/19 08:53:04;;;;;;;11.43;4.40;;;12.10;99.90;;;;;;5033627;28;20052;-50
2024/03/19 08:55:30;;;;;;;11.05;4.32;;;12.20;99.90;;;;;;5033586;28;20106;-50
2024/03/19 08:57:56;;;;;;;10.73;4.55;;;12.30;99.90;;;;;;5033745;28;20056;-47
2024/03/19 09:00:22;;;;;;;10.23;3.97;;;12.50;99.90;;;;;;5033752;28;20458;-50
2024/03/19 09:02:48;;;;;;;12.05;4.30;;;12.50;99.90;;;;;;5033789;28;20111;-48
2024/03/19 09:05:13;;;;;;;10.30;3.83;;;12.60;99.90;;;;;;5033548;28;20517;-50
2024/03/19 09:07:40;;;;;;;10.57;3.95;;;12.80;99.90;;;;;;5033703;28;20029;-50
2024/03/19 09:10:07;;;;;;;14.57;4.72;;;12.90;99.90;;;;;;5033813;28;20080;-47
2024/03/19 09:12:33;;;;;;;17.95;4.60;;;12.90;99.90;;;;;;5033505;28;20068;-51
2024/03/19 09:14:59;;;;;;;10.38;4.03;;;13.10;99.90;;;;;;5033406;28;20029;-47
2024/03/19 09:17:24;;;;;;;10.80;3.53;;;13.10;99.90;;;;;;5033468;28;20018;-49
2024/03/19 09:19:50;;;;;;;12.07;3.97;;;13.30;99.90;;;;;;5033338;28;20508;-51
2024/03/19 09:22:15;;;;;;;24.90;10.77;;;13.50;99.90;;;;;;5033356;28;20036;-51
2024/03/19 09:24:41;;;;;;;22.48;8.95;;;13.60;99.90;;;;;;5032971;28;20478;-47
2024/03/19 09:27:08;;;;;;;18.17;5.10;;;13.80;99.90;;;;;;5033576;28;20034;-50
2024/03/19 09:29:35;;;;;;;8.57;3.67;;;14.00;99.90;;;;;;5032976;28;20037;-47
2024/03/19 09:32:02;;;;;;;9.25;3.40;;;14.20;99.90;;;;;;5033104;28;20064;-48
2024/03/19 09:34:28;;;;;;;12.18;3.70;;;14.30;99.90;;;;;;5031646;28;20032;-51
2024/03/19 09:36:54;;;;;;;10.70;3.30;;;14.60;99.90;;;;;;5033239;28;20124;-49
2024/03/19 09:39:20;;;;;;;8.00;3.50;;;14.80;99.90;;;;;;5033073;28;20029;-48
2024/03/19 09:41:58;;;;;;;8.95;3.22;;;14.90;99.90;;;;;;5032816;28;20387;-49
2024/03/19 09:44:24;;;;;;;7.28;2.85;;;15.00;99.90;;;;;;5032756;28;20038;-50
2024/03/19 09:46:51;;;;;;;8.07;3.05;;;15.20;99.90;;;;;;5032845;28;20389;-47
2024/03/19 09:49:18;;;;;;;8.77;3.03;;;15.40;99.90;;;;;;5032704;28;20033;-52
2024/03/19 09:51:43;;;;;;;9.23;2.60;;;15.50;99.90;;;;;;5032757;28;20401;-49
2024/03/19 09:54:14;;;;;;;9.25;2.60;;;15.60;99.90;;;;;;5032418;28;20030;-52
2024/03/19 09:56:41;;;;;;;6.75;2.72;;;15.60;99.90;;;;;;5032575;28;20030;-50
2024/03/19 09:59:15;;;;;;;10.63;3.38;;;15.80;99.90;;;;;;5032456;28;20041;-48
2024/03/19 10:01:43;;;;;;;9.23;2.95;;;15.80;99.90;;;;;;5032581;28;20033;-47
2024/03/19 10:04:13;;;;;;;5.47;2.70;;;15.90;99.90;;;;;;5032541;28;20116;-52
2024/03/19 10:06:39;;;;;;;11.18;3.80;;;16.00;99.90;;;;;;5032380;28;20099;-48
2024/03/19 10:09:06;;;;;;;8.10;2.42;;;16.20;99.90;;;;;;5032305;28;20036;-49
2024/03/19 10:11:35;;;;;;;5.30;2.72;;;16.00;99.90;;;;;;5032355;28;20057;-50
2024/03/19 10:14:01;;;;;;;5.47;2.05;;;16.00;99.90;;;;;;5031262;28;20040;-47
2024/03/19 10:16:27;;;;;;;7.03;3.10;;;16.20;99.90;;;;;;5032310;28;20468;-50
2024/03/19 10:18:54;;;;;;;8.30;2.40;;;16.20;99.90;;;;;;5032584;28;20025;-52
2024/03/19 10:21:21;;;;;;;8.80;2.83;;;16.20;99.90;;;;;;5032200;28;20036;-52
2024/03/19 10:23:46;;;;;;;8.07;2.70;;;16.30;99.90;;;;;;5032115;28;20030;-48
2024/03/19 10:26:12;;;;;;;5.60;2.50;;;16.40;99.90;;;;;;5030904;28;20112;-50
2024/03/19 10:28:38;;;;;;;10.43;4.93;;;16.50;99.90;;;;;;5032139;28;20327;-51
2024/03/19 10:31:09;;;;;;;25.27;12.45;;;16.60;99.90;;;;;;5032071;28;20076;-48
2024/03/19 10:33:37;;;;;;;6.95;3.45;;;16.70;99.90;;;;;;5014247;28;20129;-50
2024/03/19 10:36:03;;;;;;;9.70;3.00;;;16.80;99.90;;;;;;5031823;28;20026;-52
2024/03/19 10:38:29;;;;;;;5.18;1.80;;;16.70;99.90;;;;;;5031997;28;20049;-51
2024/03/19 10:40:59;;;;;;;6.47;2.08;;;16.60;99.90;;;;;;5031396;28;20029;-49
2024/03/19 10:43:27;;;;;;;9.20;2.63;;;16.50;99.90;;;;;;5047159;28;20025;-48
2024/03/19 10:45:52;;;;;;;5.82;2.40;;;16.50;99.90;;;;;;5031945;28;20030;-51
2024/03/19 10:48:19;;;;;;;8.23;2.40;;;16.50;99.90;;;;;;5031883;28;20087;-51
2024/03/19 10:50:48;;;;;;;6.78;2.28;;;16.50;99.90;;;;;;5031658;28;20120;-47
2024/03/19 10:53:20;;;;;;;10.27;2.80;;;16.50;99.90;;;;;;5031752;28;20493;-50
2024/03/19 10:55:51;;;;;;;10.82;2.83;;;16.70;99.90;;;;;;5031744;28;20537;-47
2024/03/19 10:58:22;;;;;;;7.00;2.22;;;16.90;99.90;;;;;;5047091;28;20184;-49
2024/03/19 11:00:48;;;;;;;7.25;2.08;;;17.50;99.90;;;;;;5031715;28;20053;-47
2024/03/19 11:03:18;;;;;;;8.57;2.65;;;17.90;99.90;;;;;;5031556;28;20044;-47
2024/03/19 11:05:45;;;;;;;8.85;1.98;;;18.40;99.90;;;;;;5031542;28;20120;-46
2024/03/19 11:08:11;;;;;;;5.63;1.52;;;18.60;99.90;;;;;;5031645;28;20096;-50
2024/03/19 11:10:38;;;;;;;6.38;1.67;;;19.20;99.90;;;;;;5031537;28;20374;-48
2024/03/19 11:13:06;;;;;;;8.50;2.08;;;19.50;98.60;;;;;;5031666;28;20038;-51
2024/03/19 11:15:33;;;;;;;5.50;1.73;;;19.70;98.70;;;;;;5031464;28;20108;-48
2024/03/19 11:18:04;;;;;;;8.57;1.70;;;20.30;98.20;;;;;;5031690;28;20032;-52
2024/03/19 11:20:31;;;;;;;4.55;1.90;;;20.70;96.60;;;;;;5031541;28;20033;-48
2024/03/19 11:22:57;;;;;;;4.70;1.67;;;21.20;96.90;;;;;;5031620;28;20025;-49
2024/03/19 11:25:26;;;;;;;3.78;1.65;;;21.50;96.30;;;;;;5031605;28;20029;-48
2024/03/19 11:27:52;;;;;;;5.50;1.88;;;21.70;95.00;;;;;;5031527;28;20029;-51
2024/03/19 11:30:19;;;;;;;5.07;1.77;;;21.30;95.40;;;;;;5031400;28;20090;-49
2024/03/19 11:32:49;;;;;;;7.03;1.33;;;21.00;96.50;;;;;;5031552;28;20030;-48
2024/03/19 11:35:19;;;;;;;5.30;1.48;;;21.40;95.20;;;;;;5031298;28;20183;-51
2024/03/19 11:37:49;;;;;;;3.67;1.30;;;21.50;95.20;;;;;;5031869;28;20385;-47
2024/03/19 11:40:16;;;;;;;6.35;1.58;;;21.90;93.70;;;;;;5031401;28;20103;-48
2024/03/19 11:42:42;;;;;;;3.25;1.23;;;21.70;93.50;;;;;;5031872;28;20029;-47
2024/03/19 11:45:17;;;;;;;6.70;1.67;;;21.80;93.00;;;;;;5031471;28;20501;-48
2024/03/19 11:47:44;;;;;;;5.30;1.98;;;22.00;92.20;;;;;;5031988;28;20034;-47
2024/03/19 11:50:19;;;;;;;3.97;1.63;;;21.60;92.40;;;;;;5032269;28;20034;-47
2024/03/19 11:52:49;;;;;;;4.63;1.27;;;21.50;93.00;;;;;;5035021;28;20439;-50
2024/03/19 11:55:20;;;;;;;6.53;1.73;;;21.90;92.00;;;;;;5035610;28;20088;-48
2024/03/19 11:57:48;;;;;;;4.82;1.70;;;22.40;91.70;;;;;;5036556;28;20113;-48
2024/03/19 12:00:14;;;;;;;6.93;1.50;;;23.10;90.40;;;;;;5036724;28;20391;-47
2024/03/19 12:02:40;;;;;;;4.50;1.50;;;23.30;89.80;;;;;;5036728;28;20030;-48
2024/03/19 12:05:13;;;;;;;5.57;1.80;;;23.30;88.40;;;;;;5036145;28;20533;-53
2024/03/19 12:07:43;;;;;;;5.90;2.10;;;23.70;85.90;;;;;;5035717;28;20393;-52
2024/03/19 12:10:27;;;;;;;5.68;1.95;;;24.10;87.10;;;;;;5034365;28;20040;-54
2024/03/19 12:12:56;;;;;;;5.75;2.08;;;24.50;83.00;;;;;;5049905;28;20432;-52
2024/03/19 12:15:23;;;;;;;6.18;2.28;;;24.30;83.10;;;;;;5034206;28;20099;-51
2024/03/19 12:17:50;;;;;;;7.47;2.90;;;24.10;83.50;;;;;;5034391;28;20037;-52
2024/03/19 12:20:17;;;;;;;5.90;2.20;;;24.00;83.20;;;;;;5034286;28;20481;-53
2024/03/19 12:22:51;;;;;;;6.20;2.40;;;23.80;82.10;;;;;;5034377;28;20037;-53
2024/03/19 12:25:18;;;;;;;4.60;1.58;;;23.60;83.00;;;;;;5034158;28;20497;-52
2024/03/19 12:27:45;;;;;;;9.45;2.40;;;23.00;84.40;;;;;;5034178;28;20037;-51
2024/03/19 12:30:15;;;;;;;4.57;1.90;;;23.10;83.90;;;;;;5034111;28;20457;-51
2024/03/19 12:35:33;;;;;;;5.90;1.77;;;23.50;84.10;;;;;;5034116;28;20026;-50
2024/03/19 12:38:00;;;;;;;4.57;1.45;;;23.70;82.40;;;;;;5034041;28;20120;-49
2024/03/19 12:40:26;;;;;;;9.10;1.60;;;23.50;82.00;;;;;;5034025;28;20116;-52
2024/03/19 12:42:54;;;;;;;4.18;1.98;;;23.10;83.10;;;;;;5034355;28;20432;-52
2024/03/19 12:45:20;;;;;;;;;;;22.70;85.10;;;;;;5034385;28;20102;-52